createdAt,value
2022-10-25T00:00:08.073Z,14
2022-10-25T00:01:12.743Z,14
2022-10-25T00:02:27.575Z,14.1
2022-10-25T00:03:31.640Z,14.1
2022-10-25T00:04:36.185Z,13.9
2022-10-25T00:05:40.349Z,14
2022-10-25T00:06:45.031Z,14
2022-10-25T00:07:49.696Z,14
2022-10-25T00:08:54.214Z,14.1
2022-10-25T00:09:58.745Z,13.9
2022-10-25T00:11:02.905Z,14.1
2022-10-25T00:12:07.485Z,14
2022-10-25T00:13:12.173Z,14.1
2022-10-25T00:14:16.609Z,14
2022-10-25T00:15:20.660Z,13.9
2022-10-25T00:16:24.864Z,14
2022-10-25T00:17:29.450Z,14.1
2022-10-25T00:18:34.053Z,14.1
2022-10-25T00:19:38.744Z,14.1
2022-10-25T00:20:43.159Z,14.2
2022-10-25T00:21:47.409Z,14.1
2022-10-25T00:22:51.981Z,13.9
2022-10-25T00:23:56.426Z,13.9
2022-10-25T00:25:00.673Z,13.9
2022-10-25T00:26:05.149Z,13.9
2022-10-25T00:27:09.201Z,13.9
2022-10-25T00:28:13.420Z,14
2022-10-25T00:29:18.124Z,14
2022-10-25T00:30:22.545Z,14.1
2022-10-25T00:31:26.846Z,13.9
2022-10-25T00:32:31.221Z,13.9
2022-10-25T00:33:35.317Z,13.8
2022-10-25T00:34:39.481Z,13.8
2022-10-25T00:35:43.610Z,13.9
2022-10-25T00:36:47.687Z,13.9
2022-10-25T00:37:51.787Z,13.8
2022-10-25T00:38:56.426Z,13.7
2022-10-25T00:40:00.524Z,13.8
2022-10-25T00:41:05.196Z,13.9
2022-10-25T00:42:09.781Z,13.9
2022-10-25T00:43:14.388Z,13.8
2022-10-25T00:44:29.064Z,13.9
2022-10-25T00:45:36.196Z,14
2022-10-25T00:46:40.284Z,14
2022-10-25T00:47:44.724Z,13.9
2022-10-25T00:48:49.041Z,13.8
2022-10-25T00:50:03.832Z,13.9
2022-10-25T00:51:16.096Z,13.9
2022-10-25T00:52:20.652Z,13.9
2022-10-25T00:53:25.302Z,13.9
2022-10-25T00:54:29.841Z,14
2022-10-25T00:55:37.072Z,14
2022-10-25T00:56:41.647Z,14
2022-10-25T00:57:46.553Z,14.1
2022-10-25T00:58:50.793Z,13.9
2022-10-25T00:59:55.412Z,13.9
2022-10-25T01:00:59.982Z,14
2022-10-25T01:02:04.747Z,14
2022-10-25T01:03:09.205Z,13.7
2022-10-25T01:04:13.688Z,13.7
2022-10-25T01:05:17.760Z,13.8
2022-10-25T01:06:21.920Z,13.7
2022-10-25T01:07:29.080Z,13.7
2022-10-25T01:08:33.636Z,13.7
2022-10-25T01:09:37.800Z,13.7
2022-10-25T01:10:42.356Z,13.7
2022-10-25T01:11:46.499Z,13.7
2022-10-25T01:12:51.395Z,13.7
2022-10-25T01:13:55.670Z,13.8
2022-10-25T01:14:59.685Z,13.8
2022-10-25T01:16:03.865Z,13.8
2022-10-25T01:17:13.528Z,13.7
2022-10-25T01:18:26.213Z,13.7
2022-10-25T01:19:38.452Z,13.7
2022-10-25T01:20:53.339Z,13.7
2022-10-25T01:22:03.072Z,13.7
2022-10-25T01:23:07.721Z,13.8
2022-10-25T01:24:20.357Z,13.8
2022-10-25T01:25:30.048Z,13.6
2022-10-25T01:26:42.160Z,13.6
2022-10-25T01:27:51.845Z,13.4
2022-10-25T01:29:01.017Z,13.5
2022-10-25T01:30:13.304Z,13.5
2022-10-25T01:31:23.604Z,13.5
2022-10-25T01:32:28.112Z,13.6
2022-10-25T01:33:42.810Z,13.6
2022-10-25T01:34:55.193Z,13.6
2022-10-25T01:36:09.976Z,13.6
2022-10-25T01:37:14.525Z,13.6
2022-10-25T01:38:19.034Z,13.6
2022-10-25T01:39:33.841Z,13.6
2022-10-25T01:40:46.061Z,13.6
2022-10-25T01:41:50.184Z,13.5
2022-10-25T01:43:05.057Z,13.5
2022-10-25T01:44:09.565Z,13.5
2022-10-25T01:45:21.863Z,13.6
2022-10-25T01:46:29.068Z,13.6
2022-10-25T01:47:33.596Z,13.5
2022-10-25T01:48:38.252Z,13.4
2022-10-25T01:49:47.889Z,13.4
2022-10-25T01:51:00.172Z,13.4
2022-10-25T01:52:09.752Z,13.4
2022-10-25T01:53:13.978Z,13.3
2022-10-25T01:54:18.552Z,13.3
2022-10-25T01:55:23.124Z,13.2
2022-10-25T01:56:35.331Z,13.2
2022-10-25T01:57:42.469Z,13.3
2022-10-25T01:58:49.773Z,13.3
2022-10-25T02:00:04.437Z,13.3
2022-10-25T02:01:14.306Z,13.4
2022-10-25T02:02:23.811Z,13.4
2022-10-25T02:03:33.526Z,13.4
2022-10-25T02:04:40.732Z,13.3
2022-10-25T02:05:50.272Z,13.1
2022-10-25T02:07:05.157Z,13.2
2022-10-25T02:08:12.303Z,13.3
2022-10-25T02:09:27.092Z,13.3
2022-10-25T02:10:34.248Z,13.3
2022-10-25T02:11:41.405Z,13.4
2022-10-25T02:12:45.760Z,13.2
2022-10-25T02:13:50.137Z,13.2
2022-10-25T02:14:59.729Z,13.1
2022-10-25T02:16:07.101Z,13.2
2022-10-25T02:17:11.592Z,13.1
2022-10-25T02:18:16.213Z,13.2
2022-10-25T02:19:20.792Z,13.2
2022-10-25T02:20:25.384Z,13.2
2022-10-25T02:21:30.062Z,13.3
2022-10-25T02:22:34.600Z,13.2
2022-10-25T02:23:38.617Z,13.2
2022-10-25T02:24:42.804Z,13
2022-10-25T02:25:47.353Z,13.1
2022-10-25T02:26:51.344Z,13.2
2022-10-25T02:27:55.496Z,13.1
2022-10-25T02:28:59.548Z,13.1
2022-10-25T02:30:03.660Z,13.2
2022-10-25T02:31:08.360Z,13.3
2022-10-25T02:32:12.916Z,13
2022-10-25T02:33:16.985Z,13
2022-10-25T02:34:21.063Z,13
2022-10-25T02:35:25.296Z,13
2022-10-25T02:36:29.788Z,13.1
2022-10-25T02:37:33.816Z,13
2022-10-25T02:38:38.046Z,13
2022-10-25T02:39:42.600Z,13.1
2022-10-25T02:40:47.212Z,13.1
2022-10-25T02:41:51.876Z,13.1
2022-10-25T02:42:56.523Z,13.2
2022-10-25T02:44:00.887Z,13.1
2022-10-25T02:45:05.008Z,13
2022-10-25T02:46:09.660Z,13.1
2022-10-25T02:47:14.306Z,13.1
2022-10-25T02:48:18.849Z,13.1
2022-10-25T02:49:22.944Z,13.1
2022-10-25T02:50:27.548Z,13.1
2022-10-25T02:51:32.179Z,13.2
2022-10-25T02:52:36.938Z,13.1
2022-10-25T02:53:41.344Z,13
2022-10-25T02:54:45.983Z,13
2022-10-25T02:55:50.791Z,13.1
2022-10-25T02:57:00.208Z,13.2
2022-10-25T02:58:04.976Z,13
2022-10-25T02:59:09.539Z,13.1
2022-10-25T03:00:14.259Z,13.1
2022-10-25T03:01:18.870Z,13
2022-10-25T03:02:23.524Z,13.1
2022-10-25T03:03:27.957Z,13.2
2022-10-25T03:04:32.496Z,13.1
2022-10-25T03:05:37.053Z,13.1
2022-10-25T03:06:41.218Z,13
2022-10-25T03:07:45.772Z,13
2022-10-25T03:08:50.328Z,13.1
2022-10-25T03:09:54.841Z,13
2022-10-25T03:10:59.061Z,12.9
2022-10-25T03:12:03.634Z,13
2022-10-25T03:13:08.338Z,12.9
2022-10-25T03:14:12.888Z,12.8
2022-10-25T03:15:17.392Z,12.8
2022-10-25T03:16:22.073Z,12.8
2022-10-25T03:17:26.585Z,12.9
2022-10-25T03:18:30.681Z,12.9
2022-10-25T03:19:35.358Z,12.8
2022-10-25T03:20:39.999Z,12.8
2022-10-25T03:21:44.550Z,12.8
2022-10-25T03:22:49.179Z,12.9
2022-10-25T03:23:53.646Z,12.9
2022-10-25T03:24:57.938Z,12.9
2022-10-25T03:26:02.365Z,13
2022-10-25T03:27:07.010Z,12.9
2022-10-25T03:28:11.571Z,13
2022-10-25T03:29:15.646Z,13.1
2022-10-25T03:30:20.318Z,13.1
2022-10-25T03:31:24.939Z,13.1
2022-10-25T03:32:29.422Z,13
2022-10-25T03:33:33.531Z,13
2022-10-25T03:34:38.134Z,13
2022-10-25T03:35:42.783Z,12.9
2022-10-25T03:36:47.231Z,12.9
2022-10-25T03:37:51.351Z,12.9
2022-10-25T03:38:55.947Z,12.8
2022-10-25T03:40:00.543Z,13
2022-10-25T03:41:05.230Z,13
2022-10-25T03:42:09.743Z,13
2022-10-25T03:43:14.432Z,13
2022-10-25T03:44:18.963Z,13.1
2022-10-25T03:45:23.519Z,13.1
2022-10-25T03:46:28.203Z,13
2022-10-25T03:47:32.847Z,13
2022-10-25T03:48:37.202Z,12.9
2022-10-25T03:49:41.282Z,13
2022-10-25T03:50:45.510Z,12.9
2022-10-25T03:51:51.100Z,12.9
2022-10-25T03:52:54.061Z,12.8
2022-10-25T03:53:58.186Z,13
2022-10-25T03:55:02.283Z,13
2022-10-25T03:56:07.022Z,13
2022-10-25T03:57:11.570Z,12.9
2022-10-25T03:58:16.338Z,12.9
2022-10-25T03:59:20.990Z,13
2022-10-25T04:00:25.362Z,13
2022-10-25T04:01:30.074Z,12.9
2022-10-25T04:02:34.563Z,13.1
2022-10-25T04:03:38.994Z,13.2
2022-10-25T04:04:43.706Z,13.2
2022-10-25T04:05:48.276Z,13
2022-10-25T04:06:52.767Z,13
2022-10-25T04:07:56.878Z,13.1
2022-10-25T04:09:00.874Z,13.1
2022-10-25T04:10:05.198Z,13.1
2022-10-25T04:11:09.966Z,13
2022-10-25T04:12:14.418Z,12.9
2022-10-25T04:13:18.944Z,13
2022-10-25T04:14:23.070Z,13.1
2022-10-25T04:15:27.667Z,13.2
2022-10-25T04:16:32.324Z,13
2022-10-25T04:17:36.814Z,13.1
2022-10-25T04:18:40.922Z,13.2
2022-10-25T04:19:45.554Z,13.1
2022-10-25T04:20:50.047Z,13.2
2022-10-25T04:21:54.342Z,13.2
2022-10-25T04:22:58.790Z,13.2
2022-10-25T04:24:04.202Z,13.2
2022-10-25T04:25:07.131Z,13.2
2022-10-25T04:26:11.599Z,13.3
2022-10-25T04:27:16.158Z,13.1
2022-10-25T04:28:20.458Z,13
2022-10-25T04:29:25.038Z,13
2022-10-25T04:30:29.390Z,13.1
2022-10-25T04:31:33.505Z,13
2022-10-25T04:32:37.690Z,13
2022-10-25T04:33:44.008Z,13.1
2022-10-25T04:34:49.310Z,13
2022-10-25T04:35:53.787Z,13.1
2022-10-25T04:36:57.866Z,13.1
2022-10-25T04:38:02.030Z,13
2022-10-25T04:39:06.210Z,13
2022-10-25T04:40:10.773Z,13
2022-10-25T04:41:15.362Z,13
2022-10-25T04:42:19.591Z,12.9
2022-10-25T04:43:24.322Z,12.9
2022-10-25T04:44:28.754Z,12.9
2022-10-25T04:45:33.306Z,12.9
2022-10-25T04:46:37.826Z,12.9
2022-10-25T04:47:41.946Z,13.1
2022-10-25T04:48:46.414Z,13
2022-10-25T04:49:50.656Z,13
2022-10-25T04:50:55.541Z,13
2022-10-25T04:51:59.730Z,13
2022-10-25T04:53:04.039Z,13
2022-10-25T04:54:08.463Z,13
2022-10-25T04:55:12.650Z,12.9
2022-10-25T04:56:17.474Z,12.9
2022-10-25T04:57:21.935Z,13
2022-10-25T04:58:28.735Z,13
2022-10-25T04:59:31.219Z,12.9
2022-10-25T05:00:35.683Z,13
2022-10-25T05:01:40.392Z,13
2022-10-25T05:02:45.573Z,13
2022-10-25T05:03:49.442Z,12.9
2022-10-25T05:04:54.215Z,13
2022-10-25T05:05:58.490Z,12.9
2022-10-25T05:07:10.310Z,12.8
2022-10-25T05:08:14.498Z,12.9
2022-10-25T05:09:18.930Z,12.9
2022-10-25T05:10:23.021Z,13
2022-10-25T05:11:27.395Z,12.9
2022-10-25T05:12:31.848Z,12.9
2022-10-25T05:13:36.622Z,12.9
2022-10-25T05:16:27.764Z,12.7
2022-10-25T05:17:31.838Z,12.8
2022-10-25T05:18:35.901Z,12.8
2022-10-25T05:19:40.080Z,12.8
2022-10-25T05:20:48.810Z,12.8
2022-10-25T05:21:56.024Z,12.7
2022-10-25T05:23:00.578Z,12.6
2022-10-25T05:24:05.078Z,12.7
2022-10-25T05:25:09.444Z,12.7
2022-10-25T05:30:13.055Z,12.7
2022-10-25T05:32:19.581Z,12.7
2022-10-25T05:34:59.717Z,12.9
2022-10-25T05:36:04.566Z,12.9
2022-10-25T05:37:09.056Z,12.8
2022-10-25T05:38:13.577Z,12.9
2022-10-25T05:39:44.810Z,12.9
2022-10-25T05:40:50.412Z,13
2022-10-25T05:41:55.621Z,12.9
2022-10-25T05:43:00.317Z,13
2022-10-25T05:44:05.087Z,12.9
2022-10-25T05:45:11.023Z,13
2022-10-25T05:46:15.991Z,12.8
2022-10-25T05:47:23.827Z,12.9
2022-10-25T05:48:28.092Z,12.8
2022-10-25T05:49:33.324Z,12.9
2022-10-25T05:51:08.302Z,12.9
2022-10-25T05:52:12.442Z,13
2022-10-25T05:53:16.918Z,12.9
2022-10-25T05:54:21.576Z,13
2022-10-25T05:55:26.250Z,12.9
2022-10-25T06:04:11.266Z,12.9
2022-10-25T06:06:17.737Z,12.9
2022-10-25T06:12:28.934Z,12.9
2022-10-25T06:13:33.119Z,12.9
2022-10-25T06:14:37.529Z,12.9
2022-10-25T06:15:41.804Z,12.9
2022-10-25T06:20:02.058Z,13
2022-10-25T06:21:06.938Z,13
2022-10-25T06:22:11.381Z,12.9
2022-10-25T06:24:17.662Z,12.9
2022-10-25T06:26:34.586Z,12.9
2022-10-25T06:28:41.727Z,12.9
2022-10-25T06:41:05.846Z,13
2022-10-25T06:42:52.181Z,13
2022-10-25T06:43:56.741Z,12.9
2022-10-25T07:21:02.934Z,13
2022-10-25T07:23:14.275Z,13
2022-10-25T07:25:31.078Z,13
2022-10-25T07:27:37.742Z,13
2022-10-25T07:29:44.718Z,13
2022-10-25T07:44:34.585Z,13.1
2022-10-25T07:46:41.125Z,13.1
2022-10-25T07:49:32.821Z,13
2022-10-25T07:50:37.159Z,13
2022-10-25T07:51:41.610Z,13
2022-10-25T07:52:46.131Z,13
2022-10-25T07:53:59.821Z,13
2022-10-25T07:55:04.150Z,13.2
2022-10-25T07:56:08.690Z,13.1
2022-10-25T07:57:13.418Z,13.1
2022-10-25T07:58:17.945Z,13.2
2022-10-25T07:59:33.685Z,13.3
2022-10-25T08:00:38.738Z,13.4
2022-10-25T08:01:43.054Z,13.4
2022-10-25T08:02:47.508Z,13.4
2022-10-25T08:03:51.977Z,13.4
2022-10-25T08:05:18.471Z,13.5
2022-10-25T08:06:22.613Z,13.7
2022-10-25T08:07:27.529Z,13.9
2022-10-25T08:08:32.366Z,13.9
2022-10-25T08:09:38.836Z,13.8
2022-10-25T08:10:53.818Z,13.8
2022-10-25T08:11:58.145Z,14
2022-10-25T08:13:02.396Z,14.2
2022-10-25T08:14:07.057Z,14.2
2022-10-25T08:15:11.613Z,14.2
2022-10-25T08:16:18.904Z,14
2022-10-25T08:17:23.451Z,14
2022-10-25T08:18:28.625Z,14
2022-10-25T08:19:33.092Z,14
2022-10-25T08:20:56.713Z,14.1
2022-10-25T08:21:47.093Z,13.9
2022-10-25T08:22:51.285Z,14
2022-10-25T08:23:58.485Z,14.2
2022-10-25T08:25:03.282Z,14.2
2022-10-25T08:26:07.760Z,14.3
2022-10-25T08:27:21.952Z,14.3
2022-10-25T08:28:26.611Z,14.3
2022-10-25T08:29:33.728Z,14.4
2022-10-25T08:30:38.245Z,14.4
2022-10-25T08:31:42.426Z,14.3
2022-10-25T08:33:11.552Z,14.3
2022-10-25T08:34:12.932Z,14.3
2022-10-25T08:35:16.992Z,14.3
2022-10-25T08:36:21.957Z,14.1
2022-10-25T08:37:26.288Z,14
2022-10-25T08:39:58.917Z,14.3
2022-10-25T08:41:03.645Z,14.3
2022-10-25T08:42:13.200Z,14.1
2022-10-25T08:43:20.004Z,14.1
2022-10-25T08:44:36.872Z,14.3
2022-10-25T08:45:48.406Z,14.2
2022-10-25T08:47:01.085Z,14.3
2022-10-25T08:48:14.246Z,14.4
2022-10-25T08:49:18.289Z,14.4
2022-10-25T08:50:22.829Z,14.2
2022-10-25T08:52:37.374Z,14.2
2022-10-25T08:53:43.435Z,14.3
2022-10-25T08:54:47.870Z,14.3
2022-10-25T08:56:15.928Z,14.3
2022-10-25T08:57:15.682Z,14.4
2022-10-25T08:58:19.565Z,14.4
2022-10-25T08:59:34.298Z,14.4
2022-10-25T09:00:38.831Z,14.1
2022-10-25T09:01:44.993Z,14.1
2022-10-25T09:02:49.003Z,14.2
2022-10-25T09:03:53.175Z,14.3
2022-10-25T09:04:57.573Z,14.4
2022-10-25T09:06:01.713Z,14.5
2022-10-25T09:07:26.961Z,14.5
2022-10-25T09:08:38.977Z,14.7
2022-10-25T09:09:46.117Z,14.7
2022-10-25T09:10:50.298Z,14.6
2022-10-25T09:12:05.071Z,14.7
2022-10-25T09:13:19.729Z,14.7
2022-10-25T09:14:34.601Z,14.8
2022-10-25T09:15:49.353Z,14.9
2022-10-25T09:17:01.582Z,15
2022-10-25T09:18:11.785Z,14.8
2022-10-25T09:19:15.750Z,14.9
2022-10-25T09:20:30.588Z,15
2022-10-25T09:21:34.649Z,15.2
2022-10-25T09:22:44.873Z,15.2
2022-10-25T09:23:48.985Z,15.3
2022-10-25T09:25:01.705Z,15.3
2022-10-25T09:26:08.744Z,15.3
2022-10-25T09:27:18.094Z,15.4
2022-10-25T09:28:30.161Z,15.4
2022-10-25T09:29:45.017Z,15.5
2022-10-25T09:30:57.121Z,15.4
2022-10-25T09:32:01.273Z,15.6
2022-10-25T09:34:57.785Z,15.9
2022-10-25T09:36:02.072Z,15.6
2022-10-25T09:37:06.616Z,15.6
2022-10-25T09:38:11.220Z,15.6
2022-10-25T09:41:19.670Z,16.1
2022-10-25T09:42:26.911Z,16.2
2022-10-25T09:43:31.493Z,16
2022-10-25T09:45:42.852Z,16
2022-10-25T09:46:49.808Z,16.2
2022-10-25T09:47:59.600Z,16.1
2022-10-25T09:49:06.732Z,16.2
2022-10-25T09:50:10.942Z,16.4
2022-10-25T09:51:25.708Z,16.5
2022-10-25T09:52:35.237Z,16.6
2022-10-25T09:53:50.036Z,16.7
2022-10-25T09:54:54.113Z,16.6
2022-10-25T09:56:03.765Z,16.4
2022-10-25T09:57:07.800Z,16.5
2022-10-25T09:58:12.109Z,16.6
2022-10-25T09:59:21.728Z,16.6
2022-10-25T10:00:27.852Z,16.7
2022-10-25T10:02:34.667Z,16.7
2022-10-25T10:04:41.173Z,16.7
2022-10-25T10:05:49.865Z,16.8
2022-10-25T10:06:54.218Z,16.8
2022-10-25T10:07:58.469Z,16.7
2022-10-25T10:09:03.024Z,16.5
2022-10-25T10:10:07.656Z,16.6
2022-10-25T10:11:17.119Z,16.7
2022-10-25T10:12:21.314Z,16.9
2022-10-25T10:13:28.472Z,17
2022-10-25T10:14:43.345Z,17
2022-10-25T10:15:53.016Z,17.1
2022-10-25T10:18:19.897Z,17.1
2022-10-25T10:19:29.544Z,17.1
2022-10-25T10:20:33.777Z,17.1
2022-10-25T10:21:38.934Z,17.1
2022-10-25T10:22:57.755Z,17
2022-10-25T10:24:02.275Z,17.2
2022-10-25T10:25:06.808Z,17.1
2022-10-25T10:26:11.026Z,17.3
2022-10-25T10:28:19.700Z,17.3
2022-10-25T10:29:24.184Z,17.4
2022-10-25T10:30:28.301Z,17.1
2022-10-25T10:31:32.387Z,16.7
2022-10-25T10:32:36.557Z,17
2022-10-25T10:33:44.853Z,17.1
2022-10-25T10:35:51.448Z,17.1
2022-10-25T10:37:58.055Z,17.1
2022-10-25T10:39:26.849Z,17.2
2022-10-25T10:40:31.052Z,17.4
2022-10-25T10:41:35.612Z,17.3
2022-10-25T10:42:39.693Z,17.2
2022-10-25T10:43:43.841Z,17.1
2022-10-25T10:44:58.969Z,17.1
2022-10-25T10:46:06.145Z,17.1
2022-10-25T10:47:10.485Z,17.1
2022-10-25T10:48:14.865Z,17
2022-10-25T10:49:18.897Z,17
2022-10-25T10:52:48.853Z,17.3
2022-10-25T10:53:58.338Z,17.2
2022-10-25T10:55:13.060Z,17.4
2022-10-25T10:56:33.876Z,17.4
2022-10-25T10:57:39.888Z,17.4
2022-10-25T10:58:44.130Z,17.6
2022-10-25T10:59:51.341Z,17.7
2022-10-25T11:00:55.735Z,17.8
2022-10-25T11:02:01.150Z,17.6
2022-10-25T11:03:15.616Z,17.8
2022-10-25T11:04:30.391Z,17.9
2022-10-25T11:05:34.487Z,18
2022-10-25T11:06:39.124Z,18
2022-10-25T11:07:56.844Z,18
2022-10-25T11:09:01.033Z,17.8
2022-10-25T11:10:10.636Z,17.8
2022-10-25T11:11:17.940Z,17.5
2022-10-25T11:12:22.408Z,17.6
2022-10-25T11:13:30.840Z,17.7
2022-10-25T11:14:35.319Z,17.9
2022-10-25T11:15:39.893Z,18
2022-10-25T11:16:54.583Z,18
2022-10-25T11:18:04.127Z,18
2022-10-25T11:19:21.908Z,18
2022-10-25T11:21:33.478Z,18
2022-10-25T11:23:45.124Z,18
2022-10-25T11:25:11.113Z,17.6
2022-10-25T11:26:25.756Z,17.7
2022-10-25T11:27:34.319Z,17.9
2022-10-25T11:28:47.275Z,17.9
2022-10-25T11:29:59.581Z,18.1
2022-10-25T11:31:09.252Z,17.9
2022-10-25T11:32:24.209Z,17.9
2022-10-25T11:33:36.169Z,18.2
2022-10-25T11:34:51.072Z,18.3
2022-10-25T11:36:03.854Z,18.1
2022-10-25T11:37:13.452Z,18.3
2022-10-25T11:38:17.519Z,18.4
2022-10-25T11:39:32.524Z,18.1
2022-10-25T11:40:47.390Z,18.2
2022-10-25T11:42:01.792Z,18.3
2022-10-25T11:43:13.633Z,18.3
2022-10-25T11:44:18.332Z,18.4
2022-10-25T11:45:25.899Z,18.4
2022-10-25T11:46:59.869Z,18.4
2022-10-25T11:48:09.567Z,18.4
2022-10-25T11:49:24.433Z,18.5
2022-10-25T11:50:37.172Z,18.4
2022-10-25T11:51:46.911Z,18.4
2022-10-25T11:52:59.056Z,18.4
2022-10-25T11:54:11.231Z,18.4
2022-10-25T11:55:18.460Z,18.5
2022-10-25T11:56:28.238Z,18.6
2022-10-25T11:57:39.028Z,18.7
2022-10-25T11:58:45.869Z,18.7
2022-10-25T12:00:00.685Z,18.7
2022-10-25T12:01:10.378Z,18.5
2022-10-25T12:02:21.032Z,18.6
2022-10-25T12:03:35.404Z,18.6
2022-10-25T12:04:50.351Z,18.7
2022-10-25T12:05:59.828Z,18.6
2022-10-25T12:07:19.873Z,18.7
2022-10-25T12:08:32.440Z,18.7
2022-10-25T12:09:42.110Z,18.6
2022-10-25T12:10:49.237Z,18.4
2022-10-25T12:11:53.507Z,18.5
2022-10-25T12:13:03.023Z,18.2
2022-10-25T12:14:17.829Z,18.4
2022-10-25T12:15:24.495Z,18
2022-10-25T12:16:37.492Z,18.2
2022-10-25T12:17:41.799Z,18.2
2022-10-25T12:18:45.926Z,18.3
2022-10-25T12:19:50.507Z,18.5
2022-10-25T12:20:55.051Z,18.3
2022-10-25T12:22:00.865Z,18.4
2022-10-25T12:23:06.736Z,18.4
2022-10-25T12:24:11.348Z,18.3
2022-10-25T12:25:21.703Z,18.3
2022-10-25T12:26:31.299Z,18.3
2022-10-25T12:27:35.943Z,18.3
2022-10-25T12:28:39.979Z,18.4
2022-10-25T12:29:47.031Z,18.4
2022-10-25T12:30:54.218Z,18.5
2022-10-25T12:32:01.072Z,18.4
2022-10-25T12:33:05.871Z,18.2
2022-10-25T12:34:15.372Z,18.2
2022-10-25T12:35:19.729Z,18.2
2022-10-25T12:36:23.872Z,18.2
2022-10-25T12:37:36.087Z,18.3
2022-10-25T12:38:40.680Z,18.1
2022-10-25T12:39:44.729Z,18.3
2022-10-25T12:40:50.439Z,18.4
2022-10-25T12:41:55.124Z,18.4
2022-10-25T12:42:59.602Z,18.5
2022-10-25T12:44:06.927Z,18.5
2022-10-25T12:45:16.608Z,18.6
2022-10-25T12:46:31.569Z,18.5
2022-10-25T12:47:48.323Z,18.5
2022-10-25T12:49:00.304Z,18.4
2022-10-25T12:50:12.454Z,18.4
2022-10-25T12:51:21.591Z,18.3
2022-10-25T12:52:36.368Z,18.4
2022-10-25T12:53:40.584Z,18.3
2022-10-25T12:54:50.313Z,18.4
2022-10-25T12:56:04.943Z,18.3
2022-10-25T12:57:14.643Z,18.5
2022-10-25T12:58:24.265Z,18.5
2022-10-25T12:59:33.555Z,18.6
2022-10-25T13:00:43.604Z,18.5
2022-10-25T13:01:53.011Z,18.6
2022-10-25T13:03:05.372Z,18.6
2022-10-25T13:04:14.919Z,18.5
2022-10-25T13:05:29.718Z,18.6
2022-10-25T13:06:37.092Z,18.5
2022-10-25T13:07:42.792Z,18.6
2022-10-25T13:08:47.185Z,18.4
2022-10-25T13:09:51.775Z,18.5
2022-10-25T13:10:56.507Z,18.4
2022-10-25T13:12:01.104Z,18.3
2022-10-25T13:13:08.157Z,18.3
2022-10-25T13:14:18.068Z,18.4
2022-10-25T13:15:32.528Z,18.4
2022-10-25T13:16:41.888Z,18.4
2022-10-25T13:17:46.433Z,18.3
2022-10-25T13:19:01.047Z,18.3
2022-10-25T13:20:13.522Z,18.3
2022-10-25T13:21:23.939Z,18.2
2022-10-25T13:22:37.901Z,18.2
2022-10-25T13:23:40.897Z,18.4
2022-10-25T13:24:48.191Z,18.4
2022-10-25T13:25:52.807Z,18.3
2022-10-25T13:26:57.329Z,18.2
2022-10-25T13:28:12.099Z,18.1
2022-10-25T13:29:16.123Z,18
2022-10-25T13:30:31.909Z,17.9
2022-10-25T13:31:35.518Z,18
2022-10-25T13:32:42.902Z,17.9
2022-10-25T13:33:47.768Z,18
2022-10-25T13:34:52.060Z,17.9
2022-10-25T13:35:57.019Z,17.8
2022-10-25T13:37:01.625Z,17.9
2022-10-25T13:38:05.991Z,17.9
2022-10-25T13:39:10.299Z,17.7
2022-10-25T13:40:18.934Z,17.8
2022-10-25T13:41:23.075Z,17.9
2022-10-25T13:42:27.155Z,17.9
2022-10-25T13:43:37.463Z,18
2022-10-25T13:44:52.147Z,18
2022-10-25T13:46:04.500Z,17.9
2022-10-25T13:47:08.456Z,17.9
2022-10-25T13:48:23.383Z,17.8
2022-10-25T13:49:30.467Z,17.7
2022-10-25T13:50:34.559Z,17.7
2022-10-25T13:51:45.914Z,17.7
2022-10-25T13:52:50.660Z,17.8
2022-10-25T13:54:00.984Z,17.7
2022-10-25T13:55:05.296Z,17.7
2022-10-25T13:56:09.861Z,17.8
2022-10-25T13:57:22.067Z,17.7
2022-10-25T13:58:36.919Z,17.7
2022-10-25T13:59:41.040Z,17.7
2022-10-25T14:00:49.769Z,17.6
2022-10-25T14:01:52.916Z,17.6
2022-10-25T14:02:56.771Z,17.7
2022-10-25T14:04:08.955Z,17.6
2022-10-25T14:05:23.935Z,17.7
2022-10-25T14:06:33.558Z,17.5
2022-10-25T14:07:38.063Z,17.6
2022-10-25T14:08:42.299Z,17.6
2022-10-25T14:09:51.891Z,17.5
2022-10-25T14:10:55.975Z,17.5
2022-10-25T14:12:11.139Z,17.5
2022-10-25T14:13:12.297Z,17.5
2022-10-25T14:14:16.511Z,17.5
2022-10-25T14:15:38.565Z,17.5
2022-10-25T14:16:53.150Z,17.6
2022-10-25T14:18:05.529Z,17.4
2022-10-25T14:19:09.955Z,17.4
2022-10-25T14:20:20.271Z,17.4
2022-10-25T14:21:30.411Z,17.4
2022-10-25T14:22:34.602Z,17.5
2022-10-25T14:23:44.443Z,17.5
2022-10-25T14:24:48.839Z,17.5
2022-10-25T14:25:53.007Z,17.5
2022-10-25T14:26:57.322Z,17.5
2022-10-25T14:28:03.939Z,17.4
2022-10-25T14:29:13.479Z,17.4
2022-10-25T14:31:29.916Z,17.3
2022-10-25T14:32:34.441Z,17.3
2022-10-25T14:33:41.676Z,17.3
2022-10-25T14:34:53.240Z,17.2
2022-10-25T14:35:57.316Z,17.2
2022-10-25T14:37:06.619Z,17.2
2022-10-25T14:38:10.672Z,17.2
2022-10-25T14:39:14.819Z,17.1
2022-10-25T14:40:18.855Z,17.2
2022-10-25T14:41:23.923Z,17.2
2022-10-25T14:42:33.105Z,17.1
2022-10-25T14:43:37.850Z,17.1
2022-10-25T14:44:42.536Z,17.1
2022-10-25T14:45:47.168Z,17.1
2022-10-25T14:46:59.270Z,17.1
2022-10-25T14:48:03.331Z,16.9
2022-10-25T14:49:10.532Z,16.8
2022-10-25T14:50:14.680Z,16.8
2022-10-25T14:51:18.771Z,16.8
2022-10-25T14:52:26.074Z,16.8
2022-10-25T14:53:30.584Z,16.7
2022-10-25T14:54:35.867Z,16.7
2022-10-25T14:55:40.340Z,16.7
2022-10-25T14:56:49.947Z,16.8
2022-10-25T14:57:58.983Z,16.7
2022-10-25T14:59:03.254Z,16.6
2022-10-25T15:00:07.909Z,16.6
2022-10-25T15:01:18.158Z,16.5
2022-10-25T15:02:22.159Z,16.6
2022-10-25T15:03:29.951Z,16.5
2022-10-25T15:04:34.497Z,16.5
2022-10-25T15:05:39.916Z,16.5
2022-10-25T15:06:44.267Z,16.5
2022-10-25T15:07:48.812Z,16.4
2022-10-25T15:09:10.386Z,16.5
2022-10-25T15:10:00.372Z,16.3
2022-10-25T15:11:08.015Z,16.4
2022-10-25T15:12:10.355Z,16.4
2022-10-25T15:13:14.464Z,16.5
2022-10-25T15:14:26.211Z,16.4
2022-10-25T15:15:30.646Z,16.5
2022-10-25T15:16:39.983Z,16.5
2022-10-25T15:17:44.091Z,16.3
2022-10-25T15:18:51.217Z,16.4
2022-10-25T15:20:03.509Z,16.4
2022-10-25T15:21:13.166Z,16.4
2022-10-25T15:22:17.230Z,16.5
2022-10-25T15:23:21.327Z,16.4
2022-10-25T15:24:25.422Z,16.3
2022-10-25T15:25:30.908Z,16.4
2022-10-25T15:26:36.862Z,16.4
2022-10-25T15:27:39.379Z,16.3
2022-10-25T15:28:43.915Z,16.3
2022-10-25T15:30:55.882Z,16.3
2022-10-25T15:32:00.290Z,16.2
2022-10-25T15:33:04.772Z,16.2
2022-10-25T15:34:11.491Z,16.2
2022-10-25T15:35:15.803Z,16.2
2022-10-25T15:36:21.849Z,16.1
2022-10-25T15:37:26.455Z,16.1
2022-10-25T15:38:42.300Z,16.1
2022-10-25T15:39:35.578Z,16.1
2022-10-25T15:40:39.614Z,16
2022-10-25T15:41:49.957Z,16
2022-10-25T15:42:54.418Z,16
2022-10-25T15:43:58.498Z,16
2022-10-25T15:45:02.572Z,16
2022-10-25T15:46:08.874Z,15.9
2022-10-25T15:47:26.919Z,15.9
2022-10-25T15:48:34.202Z,15.8
2022-10-25T15:49:38.325Z,15.8
2022-10-25T15:50:42.472Z,15.8
2022-10-25T15:51:52.359Z,15.7
2022-10-25T15:53:07.966Z,15.7
2022-10-25T15:54:12.468Z,15.6
2022-10-25T15:55:16.691Z,15.6
2022-10-25T15:56:23.778Z,15.6
2022-10-25T15:57:28.084Z,15.5
2022-10-25T15:58:34.982Z,15.5
2022-10-25T15:59:39.150Z,15.4
2022-10-25T16:00:45.979Z,15.4
2022-10-25T16:01:50.576Z,15.3
2022-10-25T16:02:55.059Z,15.2
2022-10-25T16:04:04.970Z,15.2
2022-10-25T16:05:09.290Z,15.2
2022-10-25T16:08:14.544Z,15.2
2022-10-25T16:09:50.646Z,15.2
2022-10-25T16:10:54.878Z,15.1
2022-10-25T16:11:59.407Z,15.1
2022-10-25T16:13:09.745Z,15.1
2022-10-25T16:14:17.271Z,15.1
2022-10-25T16:15:27.114Z,15
2022-10-25T16:16:40.554Z,15
2022-10-25T16:17:36.342Z,15
2022-10-25T16:18:58.664Z,15
2022-10-25T16:20:01.375Z,15
2022-10-25T16:21:18.856Z,15
2022-10-25T16:22:23.098Z,15
2022-10-25T16:23:27.214Z,14.9
2022-10-25T16:24:32.922Z,14.8
2022-10-25T16:25:37.560Z,14.9
2022-10-25T16:26:52.939Z,14.9
2022-10-25T16:27:57.350Z,14.9
2022-10-25T16:29:01.692Z,14.8
2022-10-25T16:30:10.967Z,14.8
2022-10-25T16:31:18.290Z,14.8
2022-10-25T16:32:32.919Z,14.8
2022-10-25T16:33:37.228Z,14.7
2022-10-25T16:34:41.247Z,14.7
2022-10-25T16:37:41.646Z,14.7
2022-10-25T16:38:46.452Z,14.7
2022-10-25T16:39:50.755Z,14.7
2022-10-25T16:40:55.157Z,14.7
2022-10-25T16:42:02.875Z,14.7
2022-10-25T16:43:08.087Z,14.7
2022-10-25T16:44:12.803Z,14.6
2022-10-25T16:45:17.330Z,14.5
2022-10-25T16:46:25.281Z,14.5
2022-10-25T16:49:32.794Z,14.5
2022-10-25T16:50:37.310Z,14.5
2022-10-25T16:51:41.366Z,14.5
2022-10-25T16:52:46.229Z,14.5
2022-10-25T16:55:53.048Z,14.4
2022-10-25T16:56:57.295Z,14.4
2022-10-25T16:58:01.778Z,14.4
2022-10-25T16:59:06.406Z,14.3
2022-10-25T17:00:10.878Z,14.3
2022-10-25T17:01:18.171Z,14.3
2022-10-25T17:02:22.411Z,14.3
2022-10-25T17:03:26.510Z,14.3
2022-10-25T17:04:31.042Z,14.3
2022-10-25T17:05:38.902Z,14.2
2022-10-25T17:06:43.326Z,14.2